Allen, Texas
Current Conditions -  °F | °C
As of 5:53 PM on Monday 22 Dec 2014 (Local Time) from KTKI Reporting Station
Clear Clear  
Wind Chill: 57°   Ceiling: Unl
Heat Index: 57°   Visibility: 10mi
Dew Point: 46°   Wind: 8mph
Humidity: 67%   Direction: 300°WNW
Pressure: 29.63"   Gusts: NA
Location:  33.1°N, 96.67°W
Report Text: KTKI 222353Z 30007KT 10SM CLR 14/08 A2963 RMK AO2 SLP037 T01390078 10178 20139 51020
Loading
Personal Weather Stations






























Interactive Weather Map New forecast layout! Learn more

10-Day Weather Forecast

Advertisements
Track Severe Weather on mobile